Time;durP1;ratioP1;P1;durP2;ratioP2;P2;SDS_P1;SDS_P2;PMS_P1;PMS_P2;Temp;Humidity;BMP_temperature;BMP_pressure;BME280_temperature;BME280_humidity;BME280_pressure;Samples;Min_cycle;Max_cycle;Signal;HPM_P1;HPM_P2
2021/12/21 00:01:58;;;;;;;34.05;17.58;;;;;;;;;;5112723;28;20050;-76
2021/12/21 00:04:24;;;;;;;38.47;20.55;;;;;;;;;;5112642;28;20050;-78
2021/12/21 00:06:51;;;;;;;33.85;19.92;;;;;;;;;;5112890;28;20039;-77
2021/12/21 00:09:17;;;;;;;33.78;18.08;;;;;;;;;;5113675;28;20051;-80
2021/12/21 00:11:43;;;;;;;30.00;16.08;;;;;;;;;;5116578;28;20040;-79
2021/12/21 00:21:53;;;;;;;28.85;16.33;;;;;;;;;;5116421;28;20533;-79
2021/12/21 00:24:22;;;;;;;30.02;15.57;;;;;;;;;;5116442;28;20484;-78
2021/12/21 00:26:48;;;;;;;28.80;15.98;;;;;;;;;;5116360;28;20051;-79
2021/12/21 00:29:14;;;;;;;32.00;16.42;;;;;;;;;;5116157;28;20181;-80
2021/12/21 00:31:41;;;;;;;30.40;15.63;;;;;;;;;;5116419;28;20062;-79
2021/12/21 00:34:08;;;;;;;27.10;16.13;;;;;;;;;;5116466;28;20046;-79
2021/12/21 00:36:34;;;;;;;32.50;18.33;;;;;;;;;;5116379;28;20078;-78
2021/12/21 00:39:04;;;;;;;35.33;19.38;;;;;;;;;;5116280;28;20094;-79
2021/12/21 00:41:31;;;;;;;33.90;18.77;;;;;;;;;;5116027;28;20507;-79
2021/12/21 00:43:57;;;;;;;33.22;18.40;;;;;;;;;;5116025;28;20035;-79
2021/12/21 00:46:23;;;;;;;30.25;17.02;;;;;;;;;;5116145;28;20040;-78
2021/12/21 00:48:53;;;;;;;31.77;17.63;;;;;;;;;;5098001;28;20046;-78
2021/12/21 00:51:20;;;;;;;43.85;22.48;;;;;;;;;;5115978;28;20044;-78
2021/12/21 00:53:47;;;;;;;50.55;24.98;;;;;;;;;;5115912;28;20476;-79
2021/12/21 00:56:13;;;;;;;52.08;25.83;;;;;;;;;;5097686;28;20135;-79
2021/12/21 00:58:39;;;;;;;44.88;22.75;;;;;;;;;;5097443;28;20047;-77
2021/12/21 01:01:07;;;;;;;47.10;21.88;;;;;;;;;;5115791;28;20051;-77
2021/12/21 01:03:34;;;;;;;34.30;17.80;;;;;;;;;;5097804;28;20543;-80
2021/12/21 01:06:14;;;;;;;37.40;19.20;;;;;;;;;;5115569;28;20127;-78
2021/12/21 01:09:04;;;;;;;36.53;18.42;;;;;;;;;;5115463;28;20135;-78
2021/12/21 01:11:35;;;;;;;32.90;17.00;;;;;;;;;;5115507;28;20035;-79
2021/12/21 01:16:47;;;;;;;35.28;19.27;;;;;;;;;;5115328;28;20047;-78
2021/12/21 01:19:19;;;;;;;31.08;17.00;;;;;;;;;;5114996;28;20126;-80
2021/12/21 01:32:08;;;;;;;26.75;13.98;;;;;;;;;;5080427;28;20457;-77
2021/12/21 01:37:13;;;;;;;28.02;14.15;;;;;;;;;;5115063;28;20044;-77
2021/12/21 01:50:33;;;;;;;25.38;14.20;;;;;;;;;;5114609;28;20143;-79
2021/12/21 01:52:59;;;;;;;26.10;14.15;;;;;;;;;;5114846;28;20126;-78
2021/12/21 01:55:26;;;;;;;27.95;14.60;;;;;;;;;;5096629;28;20130;-77
2021/12/21 01:57:52;;;;;;;24.95;13.90;;;;;;;;;;5114701;28;20534;-78
2021/12/21 02:00:19;;;;;;;23.33;12.52;;;;;;;;;;5079776;28;20124;-78
2021/12/21 02:02:45;;;;;;;27.48;12.82;;;;;;;;;;5114362;28;20157;-79
2021/12/21 02:05:12;;;;;;;26.30;13.75;;;;;;;;;;5096104;28;20040;-78
2021/12/21 02:07:39;;;;;;;23.90;12.50;;;;;;;;;;5096378;28;20388;-79
2021/12/21 02:10:05;;;;;;;22.48;12.25;;;;;;;;;;5114480;28;20502;-80
2021/12/21 02:12:32;;;;;;;23.75;11.80;;;;;;;;;;5095951;28;20384;-77
2021/12/21 02:15:00;;;;;;;21.67;12.30;;;;;;;;;;5114272;28;20040;-78
2021/12/21 02:20:40;;;;;;;22.25;10.73;;;;;;;;;;5114303;28;20055;-75
2021/12/21 02:23:00;;;;;;;18.70;9.95;;;;;;;;;;5113348;28;20055;-78
2021/12/21 02:27:57;;;;;;;23.35;10.52;;;;;;;;;;5096045;28;20087;-77
2021/12/21 02:30:24;;;;;;;23.25;10.77;;;;;;;;;;5096192;28;20043;-78
2021/12/21 02:32:50;;;;;;;20.42;9.52;;;;;;;;;;5113413;28;20047;-80
2021/12/21 02:35:18;;;;;;;21.33;9.50;;;;;;;;;;5095912;28;20542;-79
2021/12/21 02:37:44;;;;;;;16.50;8.82;;;;;;;;;;5113646;28;20557;-77
2021/12/21 02:40:11;;;;;;;19.83;8.57;;;;;;;;;;5113626;28;20052;-79
2021/12/21 02:42:37;;;;;;;17.77;8.50;;;;;;;;;;5113519;28;20127;-77
2021/12/21 02:45:03;;;;;;;17.83;8.50;;;;;;;;;;5113700;28;20130;-79
2021/12/21 02:47:30;;;;;;;15.88;9.10;;;;;;;;;;5095732;28;20151;-77
2021/12/21 02:49:56;;;;;;;19.67;9.25;;;;;;;;;;5113628;28;20437;-76
2021/12/21 02:52:23;;;;;;;21.40;9.32;;;;;;;;;;5113622;28;20036;-77
2021/12/21 02:54:49;;;;;;;19.08;9.18;;;;;;;;;;5095412;28;20039;-80
2021/12/21 02:57:15;;;;;;;18.27;9.20;;;;;;;;;;5113406;28;20193;-77
2021/12/21 02:59:41;;;;;;;18.02;9.60;;;;;;;;;;5113438;28;20083;-77
2021/12/21 03:02:07;;;;;;;18.67;9.48;;;;;;;;;;5095614;28;20092;-78
2021/12/21 03:04:34;;;;;;;16.92;8.90;;;;;;;;;;5095647;28;20043;-76
2021/12/21 03:09:43;;;;;;;19.05;9.02;;;;;;;;;;5078823;28;20127;-78
2021/12/21 03:14:38;;;;;;;21.35;10.48;;;;;;;;;;5113231;28;20050;-80
2021/12/21 03:17:04;;;;;;;15.88;9.02;;;;;;;;;;5094943;28;20048;-77
2021/12/21 03:19:31;;;;;;;21.10;10.23;;;;;;;;;;5113161;28;20051;-76
2021/12/21 03:21:57;;;;;;;19.05;9.73;;;;;;;;;;5113143;28;20049;-78
2021/12/21 03:24:23;;;;;;;14.82;8.98;;;;;;;;;;5112843;28;20122;-76
2021/12/21 03:26:50;;;;;;;14.50;7.88;;;;;;;;;;5113231;28;20511;-77
2021/12/21 03:29:16;;;;;;;17.15;8.52;;;;;;;;;;5095225;28;20465;-77
2021/12/21 03:31:42;;;;;;;18.38;7.88;;;;;;;;;;5094796;28;20461;-78
2021/12/21 03:34:08;;;;;;;17.83;7.85;;;;;;;;;;5112867;28;20083;-76
2021/12/21 03:36:34;;;;;;;18.52;7.70;;;;;;;;;;5094977;28;20083;-77
2021/12/21 03:39:16;;;;;;;17.48;8.80;;;;;;;;;;5113107;28;20101;-77
2021/12/21 03:41:46;;;;;;;17.15;7.97;;;;;;;;;;5094902;28;20067;-78
2021/12/21 03:44:13;;;;;;;15.70;7.47;;;;;;;;;;5113707;28;20045;-78
2021/12/21 03:46:51;;;;;;;17.50;9.10;;;;;;;;;;5117219;28;20134;-79
2021/12/21 03:52:01;;;;;;;18.17;8.45;;;;;;;;;;5117127;28;20051;-79
2021/12/21 03:54:27;;;;;;;18.45;8.30;;;;;;;;;;5117009;28;20100;-77
2021/12/21 03:56:53;;;;;;;16.80;8.75;;;;;;;;;;5117107;28;20492;-76
2021/12/21 03:59:20;;;;;;;18.17;9.10;;;;;;;;;;5116981;28;20039;-76
2021/12/21 04:01:47;;;;;;;16.80;8.40;;;;;;;;;;5098742;28;20084;-76
2021/12/21 04:04:13;;;;;;;17.27;8.32;;;;;;;;;;5099117;28;20090;-76
2021/12/21 04:06:39;;;;;;;20.50;9.02;;;;;;;;;;5082138;28;20074;-77
2021/12/21 04:09:06;;;;;;;18.25;8.15;;;;;;;;;;5116855;28;20094;-78
2021/12/21 04:11:32;;;;;;;18.88;8.80;;;;;;;;;;5098826;28;20126;-78
2021/12/21 04:13:59;;;;;;;15.98;7.80;;;;;;;;;;5116671;28;20057;-79
2021/12/21 04:16:25;;;;;;;16.75;7.72;;;;;;;;;;5116537;28;20051;-77
2021/12/21 04:18:51;;;;;;;18.67;7.22;;;;;;;;;;5081357;28;20040;-78
2021/12/21 04:21:18;;;;;;;16.00;8.15;;;;;;;;;;5098691;28;20066;-79
2021/12/21 04:23:44;;;;;;;16.00;8.27;;;;;;;;;;5116508;28;20051;-79
2021/12/21 04:26:11;;;;;;;14.55;7.53;;;;;;;;;;5098280;28;20039;-78
2021/12/21 04:28:38;;;;;;;17.15;7.50;;;;;;;;;;5116434;28;20444;-78
2021/12/21 04:31:05;;;;;;;14.95;7.60;;;;;;;;;;5116564;28;20044;-77
2021/12/21 04:33:31;;;;;;;14.35;7.43;;;;;;;;;;5116428;28;20126;-78
2021/12/21 04:35:57;;;;;;;16.40;7.72;;;;;;;;;;5116331;28;20040;-78
2021/12/21 04:38:29;;;;;;;17.60;7.50;;;;;;;;;;5116383;28;20044;-77
2021/12/21 04:41:02;;;;;;;20.42;7.22;;;;;;;;;;5098850;28;20388;-76
2021/12/21 04:43:28;;;;;;;16.83;8.48;;;;;;;;;;5115941;28;20048;-76
2021/12/21 04:45:54;;;;;;;18.10;8.65;;;;;;;;;;5098222;28;20127;-78
2021/12/21 04:48:20;;;;;;;16.50;7.53;;;;;;;;;;5097988;28;20134;-77
2021/12/21 04:50:46;;;;;;;13.43;6.95;;;;;;;;;;5116107;28;20075;-77
2021/12/21 04:53:12;;;;;;;14.25;7.55;;;;;;;;;;5115765;28;20370;-78
2021/12/21 04:55:38;;;;;;;14.70;7.18;;;;;;;;;;5097373;28;20043;-79
2021/12/21 04:58:05;;;;;;;15.90;6.50;;;;;;;;;;5097765;28;20090;-76
2021/12/21 05:00:31;;;;;;;14.75;7.25;;;;;;;;;;5116038;28;20044;-78
2021/12/21 05:02:58;;;;;;;13.48;6.03;;;;;;;;;;5097708;28;20113;-78
2021/12/21 05:05:24;;;;;;;12.13;5.95;;;;;;;;;;5115661;28;20050;-76
2021/12/21 05:08:04;;;;;;;16.15;6.25;;;;;;;;;;5115714;28;20082;-77
2021/12/21 05:10:31;;;;;;;11.30;5.95;;;;;;;;;;5115468;28;20047;-78
2021/12/21 05:12:57;;;;;;;18.85;6.35;;;;;;;;;;5115588;28;20047;-77
2021/12/21 05:15:23;;;;;;;12.30;5.32;;;;;;;;;;5115656;28;20087;-76
2021/12/21 05:17:49;;;;;;;14.80;5.90;;;;;;;;;;5097508;28;20490;-74
2021/12/21 05:20:15;;;;;;;14.38;5.53;;;;;;;;;;5115217;28;20051;-78
2021/12/21 05:22:41;;;;;;;11.95;5.78;;;;;;;;;;5115279;28;20044;-77
2021/12/21 05:25:08;;;;;;;12.60;5.60;;;;;;;;;;5115185;28;20035;-76
2021/12/21 05:27:34;;;;;;;14.13;5.35;;;;;;;;;;5097542;28;20051;-80
2021/12/21 05:30:00;;;;;;;13.80;5.22;;;;;;;;;;5115428;28;20332;-76
2021/12/21 05:32:26;;;;;;;12.93;4.70;;;;;;;;;;5097156;28;20509;-78
2021/12/21 05:34:52;;;;;;;11.80;4.35;;;;;;;;;;5115140;28;20058;-76
2021/12/21 05:37:18;;;;;;;12.45;5.05;;;;;;;;;;5097080;28;20050;-78
2021/12/21 05:39:58;;;;;;;12.18;5.20;;;;;;;;;;5097020;28;20051;-80
2021/12/21 05:42:24;;;;;;;12.30;4.70;;;;;;;;;;5115112;28;20050;-76
2021/12/21 05:44:51;;;;;;;11.25;4.97;;;;;;;;;;5096860;28;20048;-79
2021/12/21 05:47:17;;;;;;;11.77;5.13;;;;;;;;;;5096864;28;20043;-78
2021/12/21 05:49:44;;;;;;;10.43;5.50;;;;;;;;;;5096552;28;20373;-79
2021/12/21 05:52:10;;;;;;;11.52;5.63;;;;;;;;;;5114561;28;20039;-75
2021/12/21 05:54:36;;;;;;;11.52;5.40;;;;;;;;;;5114917;28;20035;-76
2021/12/21 05:57:03;;;;;;;12.73;6.05;;;;;;;;;;5114771;28;20497;-77
2021/12/21 05:59:29;;;;;;;11.80;6.30;;;;;;;;;;5114595;28;20040;-77
2021/12/21 06:01:55;;;;;;;14.98;7.25;;;;;;;;;;5114598;28;20477;-78
2021/12/21 06:04:21;;;;;;;14.98;7.95;;;;;;;;;;5114576;28;20393;-76
2021/12/21 06:06:48;;;;;;;13.38;8.02;;;;;;;;;;5113801;28;20139;-75
2021/12/21 06:09:14;;;;;;;14.38;8.23;;;;;;;;;;5096598;28;20039;-76
2021/12/21 06:11:48;;;;;;;16.83;8.23;;;;;;;;;;5114475;28;20393;-79
2021/12/21 06:14:32;;;;;;;13.60;8.05;;;;;;;;;;5095799;28;20404;-79
2021/12/21 06:27:48;;;;;;;13.80;6.90;;;;;;;;;;5113999;28;20046;-78
2021/12/21 06:30:15;;;;;;;15.93;7.43;;;;;;;;;;5114249;28;20136;-77
2021/12/21 06:32:41;;;;;;;12.20;7.10;;;;;;;;;;5114066;28;20079;-79
2021/12/21 06:35:07;;;;;;;13.27;7.70;;;;;;;;;;5113990;28;20043;-78
2021/12/21 06:37:34;;;;;;;18.00;7.70;;;;;;;;;;5095669;28;20132;-78
2021/12/21 06:40:00;;;;;;;17.70;8.00;;;;;;;;;;5095426;28;20043;-76
2021/12/21 06:42:27;;;;;;;17.13;8.43;;;;;;;;;;5113845;28;20045;-78
2021/12/21 06:44:57;;;;;;;15.90;8.18;;;;;;;;;;5078575;28;20510;-76
2021/12/21 06:52:54;;;;;;;12.60;7.07;;;;;;;;;;5114971;27;20074;-76
2021/12/21 06:55:20;;;;;;;17.58;7.85;;;;;;;;;;5105110;28;20169;-77
2021/12/21 06:57:46;;;;;;;14.35;7.05;;;;;;;;;;5107256;27;20067;-78
2021/12/21 07:00:16;;;;;;;14.25;7.32;;;;;;;;;;5126270;27;20043;-76
2021/12/21 07:02:42;;;;;;;15.48;7.50;;;;;;;;;;5120100;27;20396;-79
2021/12/21 07:05:09;;;;;;;17.27;7.78;;;;;;;;;;5122280;27;20042;-77
2021/12/21 07:07:36;;;;;;;12.75;6.20;;;;;;;;;;5111476;28;20130;-75
2021/12/21 07:10:06;;;;;;;12.55;7.50;;;;;;;;;;5112028;27;20052;-79
2021/12/21 07:20:34;;;;;;;14.65;6.85;;;;;;;;;;5112856;28;20100;-77
2021/12/21 07:23:00;;;;;;;18.42;7.28;;;;;;;;;;5112979;28;20427;-79
2021/12/21 07:25:27;;;;;;;16.25;6.93;;;;;;;;;;5113030;28;20052;-77
2021/12/21 07:27:54;;;;;;;16.30;8.13;;;;;;;;;;5095013;28;20036;-78
2021/12/21 07:30:20;;;;;;;14.05;6.90;;;;;;;;;;5113076;28;20505;-78
2021/12/21 07:32:47;;;;;;;15.00;7.50;;;;;;;;;;5094909;28;20043;-79
2021/12/21 07:35:13;;;;;;;11.18;6.47;;;;;;;;;;5113123;28;20127;-79
2021/12/21 07:37:39;;;;;;;15.38;6.85;;;;;;;;;;5095021;28;20051;-79
2021/12/21 07:40:06;;;;;;;15.20;6.50;;;;;;;;;;5112068;28;20558;-78
2021/12/21 07:42:33;;;;;;;12.10;6.70;;;;;;;;;;5112107;28;20039;-79
2021/12/21 07:44:59;;;;;;;14.73;8.30;;;;;;;;;;5112948;28;20039;-78
2021/12/21 07:47:25;;;;;;;29.88;18.55;;;;;;;;;;5112839;28;20182;-78
2021/12/21 07:49:51;;;;;;;31.33;18.52;;;;;;;;;;5112640;28;20061;-77
2021/12/21 07:52:18;;;;;;;24.33;16.42;;;;;;;;;;5112688;28;20043;-79
2021/12/21 07:54:44;;;;;;;23.73;13.10;;;;;;;;;;5094476;28;20131;-78
2021/12/21 07:57:10;;;;;;;19.65;11.93;;;;;;;;;;5112359;28;20079;-78
2021/12/21 07:59:38;;;;;;;21.27;10.93;;;;;;;;;;5094860;28;20122;-79
2021/12/21 08:02:05;;;;;;;23.23;12.88;;;;;;;;;;5112858;28;20075;-79
2021/12/21 08:04:33;;;;;;;26.50;15.55;;;;;;;;;;5094731;28;20501;-77
2021/12/21 08:07:06;;;;;;;18.60;10.55;;;;;;;;;;5112698;28;20035;-82
2021/12/21 08:09:38;;;;;;;21.27;13.40;;;;;;;;;;5094547;28;20044;-77
2021/12/21 08:12:16;;;;;;;42.63;26.63;;;;;;;;;;5112909;28;20050;-78
2021/12/21 08:14:47;;;;;;;65.07;39.22;;;;;;;;;;5112747;28;20084;-76
2021/12/21 08:17:13;;;;;;;50.30;29.15;;;;;;;;;;5112687;28;20124;-78
2021/12/21 08:19:39;;;;;;;28.17;17.20;;;;;;;;;;5112504;28;20056;-76
2021/12/21 08:22:05;;;;;;;25.90;15.15;;;;;;;;;;5112429;28;20184;-79
2021/12/21 08:24:33;;;;;;;28.73;14.77;;;;;;;;;;5094493;28;20043;-77
2021/12/21 08:26:59;;;;;;;24.42;14.27;;;;;;;;;;5112437;28;20421;-77
2021/12/21 08:29:26;;;;;;;30.38;19.48;;;;;;;;;;5112489;28;20051;-77
2021/12/21 08:31:52;;;;;;;31.20;17.85;;;;;;;;;;5115408;28;20571;-79
2021/12/21 08:34:20;;;;;;;26.80;16.77;;;;;;;;;;5097967;28;20121;-78
2021/12/21 08:36:46;;;;;;;17.42;11.13;;;;;;;;;;5115975;28;20122;-78
2021/12/21 08:39:13;;;;;;;17.15;9.60;;;;;;;;;;5116350;28;20131;-78
2021/12/21 08:41:43;;;;;;;17.63;9.82;;;;;;;;;;5116101;28;20047;-79
2021/12/21 08:44:11;;;;;;;17.08;9.52;;;;;;;;;;5097648;28;20059;-79
2021/12/21 08:46:41;;;;;;;16.27;9.20;;;;;;;;;;5115958;28;20097;-79
2021/12/21 08:49:07;;;;;;;18.20;8.50;;;;;;;;;;5115805;28;20480;-78
2021/12/21 08:51:33;;;;;;;14.80;8.35;;;;;;;;;;5115961;28;20044;-77
2021/12/21 08:53:59;;;;;;;15.65;7.68;;;;;;;;;;5116014;28;20065;-78
2021/12/21 08:56:26;;;;;;;18.20;8.68;;;;;;;;;;5115970;28;20109;-78
2021/12/21 08:58:52;;;;;;;16.05;8.82;;;;;;;;;;5115788;28;20048;-79
2021/12/21 09:01:18;;;;;;;14.65;8.40;;;;;;;;;;5115850;28;20522;-78
2021/12/21 09:03:45;;;;;;;14.57;8.93;;;;;;;;;;5115418;28;20042;-77
2021/12/21 09:06:11;;;;;;;13.85;8.98;;;;;;;;;;5115843;28;20135;-77
2021/12/21 09:08:37;;;;;;;15.15;8.93;;;;;;;;;;5115401;28;20045;-78
2021/12/21 09:11:05;;;;;;;15.48;8.68;;;;;;;;;;5115539;28;20503;-79
2021/12/21 09:13:32;;;;;;;21.02;9.43;;;;;;;;;;5115325;28;20156;-80
2021/12/21 09:15:59;;;;;;;18.75;10.00;;;;;;;;;;5097301;28;20043;-78
2021/12/21 09:18:25;;;;;;;17.55;10.05;;;;;;;;;;5115261;28;20050;-78
2021/12/21 09:20:51;;;;;;;18.70;10.85;;;;;;;;;;5096720;28;20116;-77
2021/12/21 09:23:17;;;;;;;18.33;11.18;;;;;;;;;;5115343;28;20055;-78
2021/12/21 09:25:43;;;;;;;20.27;11.90;;;;;;;;;;5097429;28;20465;-78
2021/12/21 09:28:09;;;;;;;21.67;12.50;;;;;;;;;;5115075;28;20118;-78
2021/12/21 09:30:36;;;;;;;24.70;12.52;;;;;;;;;;5115028;28;20053;-77
2021/12/21 09:33:02;;;;;;;28.02;16.17;;;;;;;;;;5096745;28;20176;-79
2021/12/21 09:35:28;;;;;;;22.42;14.43;;;;;;;;;;5097245;28;20126;-77
2021/12/21 09:37:55;;;;;;;19.63;13.05;;;;;;;;;;5115068;28;20039;-78
2021/12/21 09:40:22;;;;;;;20.75;13.55;;;;;;;;;;5115302;28;20127;-77
2021/12/21 09:42:49;;;;;;;25.95;14.75;;;;;;;;;;5113724;28;20101;-78
2021/12/21 09:45:16;;;;;;;26.92;14.25;;;;;;;;;;5096974;28;20048;-79
2021/12/21 09:47:42;;;;;;;26.92;16.45;;;;;;;;;;5115060;28;20043;-79
2021/12/21 09:50:09;;;;;;;23.10;16.25;;;;;;;;;;5115116;28;20050;-79
2021/12/21 09:52:35;;;;;;;23.73;15.77;;;;;;;;;;5114559;28;20047;-78
2021/12/21 09:55:02;;;;;;;24.17;16.17;;;;;;;;;;5114522;28;20126;-80
2021/12/21 09:57:29;;;;;;;28.77;17.90;;;;;;;;;;5096481;28;20130;-78
2021/12/21 09:59:55;;;;;;;23.70;16.45;;;;;;;;;;5114308;28;20039;-77
2021/12/21 10:02:22;;;;;;;24.30;16.17;;;;;;;;;;5114185;28;20494;-79
2021/12/21 10:04:53;;;;;;;28.27;17.83;;;;;;;;;;5096173;28;20084;-79
2021/12/21 10:07:22;;;;;;;25.25;17.77;;;;;;;;;;5095594;28;20384;-78
2021/12/21 10:09:48;;;;;;;24.60;17.88;;;;;;;;;;5096369;28;20052;-78
2021/12/21 10:12:35;;;;;;;32.22;20.67;;;;;;;;;;5095755;28;20097;-79
2021/12/21 10:15:12;;;;;;;31.08;18.95;;;;;;;;;;5114281;28;20048;-79
2021/12/21 10:17:38;;;;;;;34.45;23.38;;;;;;;;;;5114336;28;20040;-79
2021/12/21 10:20:07;;;;;;;31.42;22.48;;;;;;;;;;5113933;28;20051;-78
2021/12/21 10:22:33;;;;;;;29.25;21.05;;;;;;;;;;5114007;28;20083;-79
2021/12/21 10:24:59;;;;;;;36.78;25.98;;;;;;;;;;5095997;28;20045;-77
2021/12/21 10:27:26;;;;;;;29.85;20.60;;;;;;;;;;5078513;28;20053;-79
2021/12/21 10:29:55;;;;;;;39.38;27.60;;;;;;;;;;5114054;28;20122;-78
2021/12/21 10:32:28;;;;;;;36.03;25.73;;;;;;;;;;5113859;28;20039;-77
2021/12/21 10:34:54;;;;;;;28.63;21.60;;;;;;;;;;5113878;28;20047;-77
2021/12/21 10:37:27;;;;;;;28.73;21.20;;;;;;;;;;5113975;28;20039;-78
2021/12/21 10:40:28;;;;;;;37.63;25.10;;;;;;;;;;5113668;28;20130;-79
2021/12/21 10:42:59;;;;;;;33.88;22.55;;;;;;;;;;5092054;28;20051;-80
2021/12/21 10:45:33;;;;;;;32.70;23.23;;;;;;;;;;5095731;28;20122;-79
2021/12/21 10:48:00;;;;;;;34.22;26.73;;;;;;;;;;5113548;28;20442;-78
2021/12/21 10:50:29;;;;;;;36.80;26.25;;;;;;;;;;5113775;28;20048;-80
2021/12/21 10:52:59;;;;;;;29.27;22.48;;;;;;;;;;5113272;28;20047;-78
2021/12/21 10:55:29;;;;;;;37.58;28.02;;;;;;;;;;5113716;28;20039;-79
2021/12/21 10:58:06;;;;;;;33.67;26.48;;;;;;;;;;5113506;28;20043;-78
2021/12/21 11:00:33;;;;;;;25.77;20.95;;;;;;;;;;5113384;28;20035;-79
2021/12/21 11:02:59;;;;;;;30.75;22.23;;;;;;;;;;5113438;28;20134;-79
2021/12/21 11:05:25;;;;;;;31.27;23.35;;;;;;;;;;5113306;28;20044;-79
2021/12/21 11:07:59;;;;;;;35.00;25.52;;;;;;;;;;5113475;28;20392;-79
2021/12/21 11:10:32;;;;;;;32.10;23.10;;;;;;;;;;5113010;28;20512;-78
2021/12/21 11:13:05;;;;;;;33.65;22.77;;;;;;;;;;5094613;28;20044;-78
2021/12/21 11:15:33;;;;;;;35.85;24.73;;;;;;;;;;5113041;28;20411;-80
2021/12/21 11:18:00;;;;;;;34.28;25.35;;;;;;;;;;5113241;28;20366;-80
2021/12/21 11:20:27;;;;;;;33.95;25.33;;;;;;;;;;5091041;28;20067;-78
2021/12/21 11:22:53;;;;;;;37.17;24.67;;;;;;;;;;5091923;28;20048;-78
2021/12/21 11:25:20;;;;;;;33.70;23.38;;;;;;;;;;5108013;28;20044;-78
2021/12/21 11:27:46;;;;;;;40.88;25.67;;;;;;;;;;5091790;28;20052;-78
2021/12/21 11:30:14;;;;;;;33.50;22.05;;;;;;;;;;5091678;28;20048;-78
2021/12/21 11:32:43;;;;;;;35.78;23.58;;;;;;;;;;5091936;28;20044;-79
2021/12/21 11:37:37;;;;;;;35.05;27.00;;;;;;;;;;5091896;28;20047;-80
2021/12/21 11:40:08;;;;;;;41.60;25.63;;;;;;;;;;5091670;28;20123;-79
2021/12/21 11:42:39;;;;;;;38.92;28.33;;;;;;;;;;5092054;28;20123;-79
2021/12/21 11:45:07;;;;;;;37.50;24.90;;;;;;;;;;5091895;28;20044;-81
2021/12/21 11:47:38;;;;;;;32.85;25.65;;;;;;;;;;5091771;28;20058;-78
2021/12/21 11:50:07;;;;;;;31.60;21.58;;;;;;;;;;5091579;28;20040;-77
2021/12/21 11:52:42;;;;;;;26.85;20.45;;;;;;;;;;5091531;28;20039;-77
2021/12/21 11:55:09;;;;;;;27.95;20.33;;;;;;;;;;5090451;28;20044;-77
2021/12/21 11:57:41;;;;;;;27.67;20.52;;;;;;;;;;5091594;28;20040;-77
2021/12/21 12:00:07;;;;;;;29.63;20.98;;;;;;;;;;5090420;28;20044;-79
2021/12/21 12:02:33;;;;;;;29.55;21.35;;;;;;;;;;5091417;28;20048;-78
2021/12/21 12:05:00;;;;;;;28.90;21.40;;;;;;;;;;5107693;28;20044;-78
2021/12/21 12:07:26;;;;;;;29.30;22.40;;;;;;;;;;5111104;28;20040;-78
2021/12/21 12:10:06;;;;;;;27.50;21.13;;;;;;;;;;5095261;28;20448;-78
2021/12/21 12:12:32;;;;;;;36.35;22.88;;;;;;;;;;5110731;28;20071;-78
2021/12/21 12:15:02;;;;;;;31.98;21.85;;;;;;;;;;5094948;28;20040;-77
2021/12/21 12:17:30;;;;;;;31.02;22.13;;;;;;;;;;5110692;28;20047;-78
2021/12/21 12:20:01;;;;;;;30.63;21.42;;;;;;;;;;5052513;28;1180877;-80
2021/12/21 12:22:41;;;;;;;32.43;19.83;;;;;;;;;;5095962;28;20043;-79
2021/12/21 12:25:17;;;;;;;29.95;19.00;;;;;;;;;;5095156;28;20127;-77
2021/12/21 12:27:44;;;;;;;27.95;18.52;;;;;;;;;;5095978;28;20090;-78
2021/12/21 12:30:12;;;;;;;28.20;17.98;;;;;;;;;;5096462;28;20051;-77
2021/12/21 12:32:38;;;;;;;28.33;16.92;;;;;;;;;;5116208;28;20400;-76
2021/12/21 12:35:06;;;;;;;24.92;16.85;;;;;;;;;;5114630;28;20058;-78
2021/12/21 12:37:32;;;;;;;25.15;15.90;;;;;;;;;;5114773;28;20074;-78
2021/12/21 12:40:09;;;;;;;30.55;17.83;;;;;;;;;;5115076;28;20039;-79
2021/12/21 12:42:35;;;;;;;23.13;16.40;;;;;;;;;;5114470;28;20048;-77
2021/12/21 12:45:06;;;;;;;28.67;16.70;;;;;;;;;;5115375;28;20092;-79
2021/12/21 12:47:32;;;;;;;26.50;16.15;;;;;;;;;;5113596;28;20047;-77
2021/12/21 12:49:58;;;;;;;24.73;14.65;;;;;;;;;;5116133;28;20068;-81
2021/12/21 12:52:28;;;;;;;21.88;13.93;;;;;;;;;;5097277;28;20122;-79
2021/12/21 12:54:55;;;;;;;27.70;14.35;;;;;;;;;;5094597;28;20488;-78
2021/12/21 12:57:29;;;;;;;22.95;13.80;;;;;;;;;;5112731;28;20069;-82
2021/12/21 12:59:58;;;;;;;23.88;14.07;;;;;;;;;;5115041;28;20104;-79
2021/12/21 13:02:25;;;;;;;26.55;14.10;;;;;;;;;;5098338;28;20075;-83
2021/12/21 13:04:51;;;;;;;24.83;14.55;;;;;;;;;;5095161;28;20512;-81
2021/12/21 13:07:27;;;;;;;24.63;14.30;;;;;;;;;;5109926;28;20039;-80
2021/12/21 13:10:05;;;;;;;22.77;14.23;;;;;;;;;;5114963;28;20043;-79
2021/12/21 13:12:31;;;;;;;25.30;13.82;;;;;;;;;;5114615;28;20130;-80
2021/12/21 13:14:57;;;;;;;25.67;14.50;;;;;;;;;;5114730;28;20164;-80
2021/12/21 13:17:23;;;;;;;26.55;14.25;;;;;;;;;;5094913;28;20517;-76
2021/12/21 13:19:49;;;;;;;25.55;14.57;;;;;;;;;;5103123;28;20066;-80
2021/12/21 13:22:21;;;;;;;25.70;14.38;;;;;;;;;;5134655;27;20047;-76
2021/12/21 13:24:48;;;;;;;23.42;13.73;;;;;;;;;;5136064;27;20111;-78
2021/12/21 13:27:15;;;;;;;26.45;13.07;;;;;;;;;;5135118;27;20053;-78
2021/12/21 13:29:44;;;;;;;26.92;13.18;;;;;;;;;;5117417;27;20053;-77
2021/12/21 13:32:11;;;;;;;28.63;13.23;;;;;;;;;;5115739;27;20046;-76
2021/12/21 13:34:41;;;;;;;25.30;13.25;;;;;;;;;;5117327;27;20039;-80
2021/12/21 13:37:09;;;;;;;24.33;13.63;;;;;;;;;;5118832;27;20039;-78
2021/12/21 13:39:46;;;;;;;21.08;12.65;;;;;;;;;;5115160;28;20436;-76
2021/12/21 13:42:14;;;;;;;23.27;12.18;;;;;;;;;;5115346;27;20059;-79
2021/12/21 13:44:45;;;;;;;25.17;12.90;;;;;;;;;;5114801;28;20419;-76
2021/12/21 13:47:14;;;;;;;26.20;12.45;;;;;;;;;;5115938;27;20412;-78
2021/12/21 13:49:53;;;;;;;22.88;11.88;;;;;;;;;;5115083;28;20483;-80
2021/12/21 13:52:19;;;;;;;29.38;13.70;;;;;;;;;;5131630;27;20043;-78
2021/12/21 13:54:46;;;;;;;22.67;14.02;;;;;;;;;;5117208;27;20125;-78
2021/12/21 13:57:15;;;;;;;24.27;15.60;;;;;;;;;;5119881;27;20040;-80
2021/12/21 13:59:41;;;;;;;26.92;18.13;;;;;;;;;;5114563;28;20490;-80
2021/12/21 14:02:10;;;;;;;27.85;19.80;;;;;;;;;;5115083;27;20424;-80
2021/12/21 14:04:48;;;;;;;30.02;20.90;;;;;;;;;;5096264;28;20407;-80
2021/12/21 14:07:14;;;;;;;30.27;20.35;;;;;;;;;;5097412;28;20039;-78
2021/12/21 14:09:40;;;;;;;29.75;21.00;;;;;;;;;;5114427;28;20123;-80
2021/12/21 14:12:13;;;;;;;30.92;21.88;;;;;;;;;;5113906;28;20035;-81
2021/12/21 14:14:41;;;;;;;30.30;21.00;;;;;;;;;;5096505;28;20396;-80
2021/12/21 14:17:12;;;;;;;37.67;21.95;;;;;;;;;;5114180;28;20039;-80
2021/12/21 14:19:38;;;;;;;34.25;20.90;;;;;;;;;;5114000;28;20095;-79
2021/12/21 14:22:05;;;;;;;33.20;22.13;;;;;;;;;;5113850;28;20052;-79
2021/12/21 14:24:31;;;;;;;30.75;22.17;;;;;;;;;;5095850;28;20492;-80
2021/12/21 14:26:59;;;;;;;34.40;21.17;;;;;;;;;;5114168;28;20412;-79
2021/12/21 14:29:30;;;;;;;31.85;22.60;;;;;;;;;;5095624;28;20090;-79
2021/12/21 14:32:14;;;;;;;35.33;24.85;;;;;;;;;;5113989;28;20057;-80
2021/12/21 14:34:41;;;;;;;34.13;22.75;;;;;;;;;;5113877;28;20054;-79
2021/12/21 14:37:08;;;;;;;31.88;20.60;;;;;;;;;;5113754;28;20042;-78
2021/12/21 14:39:35;;;;;;;31.63;21.38;;;;;;;;;;5095893;28;20046;-82
2021/12/21 14:42:04;;;;;;;37.40;23.67;;;;;;;;;;5113877;28;20472;-82
2021/12/21 14:44:31;;;;;;;36.53;25.80;;;;;;;;;;5113987;28;20130;-79
2021/12/21 14:47:06;;;;;;;42.25;28.45;;;;;;;;;;5095541;28;20122;-79
2021/12/21 14:49:35;;;;;;;39.90;27.83;;;;;;;;;;5095604;28;20039;-79
2021/12/21 14:52:18;;;;;;;41.95;30.45;;;;;;;;;;5095510;28;20469;-81
2021/12/21 14:54:51;;;;;;;42.88;29.40;;;;;;;;;;5113872;28;20043;-79
2021/12/21 14:57:30;;;;;;;38.88;28.73;;;;;;;;;;5113434;28;20048;-79
2021/12/21 14:59:56;;;;;;;39.58;29.05;;;;;;;;;;5113239;28;20043;-78
2021/12/21 15:03:07;;;;;;;46.80;30.75;;;;;;;;;;5113481;28;20051;-80
2021/12/21 15:05:09;;;;;;;41.47;29.38;;;;;;;;;;5102043;28;20048;-78
2021/12/21 15:07:36;;;;;;;52.95;36.20;;;;;;;;;;5113163;28;20043;-80
2021/12/21 15:10:05;;;;;;;58.05;37.30;;;;;;;;;;5095422;28;20093;-79
2021/12/21 15:12:32;;;;;;;51.13;36.00;;;;;;;;;;5112740;28;20500;-80
2021/12/21 15:14:58;;;;;;;50.33;38.13;;;;;;;;;;5095129;28;20540;-79
2021/12/21 15:17:24;;;;;;;54.00;38.25;;;;;;;;;;5095322;28;20049;-81
2021/12/21 15:19:51;;;;;;;53.00;37.08;;;;;;;;;;5112721;28;20088;-78
2021/12/21 15:22:17;;;;;;;56.42;42.78;;;;;;;;;;5113021;28;20043;-80
2021/12/21 15:24:44;;;;;;;50.35;36.95;;;;;;;;;;5112953;28;20130;-81
2021/12/21 15:27:10;;;;;;;56.42;37.67;;;;;;;;;;5094792;28;20492;-79
2021/12/21 15:29:37;;;;;;;49.45;36.35;;;;;;;;;;5094792;28;20048;-78
2021/12/21 15:32:04;;;;;;;52.10;35.67;;;;;;;;;;5112905;28;20396;-80
2021/12/21 15:34:30;;;;;;;51.15;34.80;;;;;;;;;;5078515;28;20263;-79
2021/12/21 15:36:56;;;;;;;52.80;35.45;;;;;;;;;;5078117;28;20044;-80
2021/12/21 15:39:23;;;;;;;53.28;35.38;;;;;;;;;;5112413;28;20063;-79
2021/12/21 15:41:55;;;;;;;53.80;37.60;;;;;;;;;;5112280;28;20446;-80